Time;durP1;ratioP1;P1;durP2;ratioP2;P2;SDS_P1;SDS_P2;PMS_P1;PMS_P2;Temp;Humidity;BMP_temperature;BMP_pressure;BME280_temperature;BME280_humidity;BME280_pressure;Samples;Min_cycle;Max_cycle;Signal;HPM_P1;HPM_P2
2022/07/14 07:09:13;;;;;;;4.13;1.48;;;26.20;99.90;;;;;;4966337;23;20232;-68
2022/07/14 07:11:41;;;;;;;4.55;1.70;;;25.80;99.90;;;;;;4944138;28;20215;-70
2022/07/14 07:14:08;;;;;;;3.58;2.00;;;25.90;99.90;;;;;;4950591;29;20548;-70
2022/07/14 07:16:35;;;;;;;1.60;1.27;;;25.70;99.90;;;;;;4958322;28;20231;-67
2022/07/14 07:19:02;;;;;;;2.58;1.10;;;25.90;99.90;;;;;;4957491;28;20208;-73
2022/07/14 07:21:29;;;;;;;1.23;1.13;;;25.90;99.90;;;;;;4958321;28;20258;-69
2022/07/14 07:23:56;;;;;;;2.75;1.20;;;25.00;99.90;;;;;;4958320;29;20674;-67
2022/07/14 07:26:25;;;;;;;2.60;1.17;;;24.70;99.90;;;;;;4958004;28;20315;-72
2022/07/14 07:28:53;;;;;;;5.43;1.20;;;25.10;99.90;;;;;;4958108;28;20212;-75
2022/07/14 07:31:20;;;;;;;4.32;1.48;;;25.20;99.90;;;;;;4958478;28;20570;-72
2022/07/14 07:33:47;;;;;;;3.58;1.00;;;25.80;99.90;;;;;;4957981;28;20216;-75
2022/07/14 07:36:14;;;;;;;3.40;0.90;;;25.40;99.90;;;;;;4958212;28;20231;-79
2022/07/14 07:38:41;;;;;;;4.22;1.30;;;25.00;99.90;;;;;;4957997;28;20299;-71
2022/07/14 07:41:08;;;;;;;3.53;1.38;;;25.50;99.90;;;;;;4957766;28;20238;-71
2022/07/14 07:43:37;;;;;;;3.15;1.00;;;26.10;99.90;;;;;;4957744;28;20219;-72
2022/07/14 07:46:05;;;;;;;4.35;1.50;;;26.60;99.90;;;;;;4957853;28;20232;-72
2022/07/14 07:48:32;;;;;;;4.22;1.25;;;27.20;99.90;;;;;;4957403;28;20212;-70
2022/07/14 07:50:59;;;;;;;2.85;1.10;;;27.60;99.90;;;;;;4957754;28;20208;-74
2022/07/14 07:53:26;;;;;;;5.72;1.27;;;28.50;99.70;;;;;;4957714;28;20218;-73
2022/07/14 07:55:54;;;;;;;3.05;1.00;;;28.20;99.10;;;;;;4957263;28;20586;-75
2022/07/14 07:58:21;;;;;;;5.47;1.20;;;28.20;98.90;;;;;;4957666;28;20243;-74
2022/07/14 08:00:49;;;;;;;4.65;1.13;;;27.70;98.60;;;;;;4957352;28;20571;-71
2022/07/14 08:03:16;;;;;;;3.63;1.65;;;27.20;99.50;;;;;;4957466;28;20210;-74
2022/07/14 08:05:43;;;;;;;3.15;1.38;;;26.50;99.90;;;;;;4956405;28;20224;-74
2022/07/14 08:08:10;;;;;;;2.35;1.52;;;26.30;99.90;;;;;;4957110;28;20212;-75
2022/07/14 08:10:38;;;;;;;6.85;1.70;;;26.00;99.90;;;;;;4957472;28;20697;-75
2022/07/14 08:13:05;;;;;;;3.85;1.63;;;25.80;99.90;;;;;;4957620;28;20212;-73
2022/07/14 08:15:32;;;;;;;2.28;1.23;;;25.40;99.90;;;;;;4957058;28;20730;-76
2022/07/14 08:18:00;;;;;;;5.15;1.20;;;25.30;99.90;;;;;;4957260;28;20214;-71
2022/07/14 08:20:27;;;;;;;2.50;1.40;;;25.20;99.90;;;;;;4957686;28;20219;-72
2022/07/14 08:22:54;;;;;;;2.67;1.10;;;25.50;99.90;;;;;;4956997;28;20236;-74
2022/07/14 08:25:22;;;;;;;2.30;0.98;;;25.60;99.90;;;;;;4957717;28;20238;-76
2022/07/14 08:27:49;;;;;;;1.92;0.88;;;25.90;99.90;;;;;;4957152;28;20236;-71
2022/07/14 08:30:16;;;;;;;1.90;0.95;;;25.60;99.90;;;;;;4957165;28;20296;-74
2022/07/14 08:32:45;;;;;;;3.28;0.85;;;26.20;99.90;;;;;;4957579;28;20572;-70
2022/07/14 08:35:15;;;;;;;2.63;0.88;;;27.30;99.70;;;;;;4957573;28;20231;-72
2022/07/14 08:37:42;;;;;;;4.25;1.15;;;28.00;97.60;;;;;;4957512;28;20200;-71
2022/07/14 08:40:12;;;;;;;1.88;0.82;;;28.10;97.00;;;;;;4957390;28;20685;-72
2022/07/14 08:42:39;;;;;;;2.45;0.90;;;27.60;96.60;;;;;;4959048;28;20240;-73
2022/07/14 08:45:09;;;;;;;4.65;1.00;;;27.80;96.40;;;;;;4958973;28;20267;-72
2022/07/14 08:47:36;;;;;;;2.58;0.80;;;27.40;95.60;;;;;;4956837;28;20211;-73
2022/07/14 08:50:04;;;;;;;1.98;0.68;;;26.90;94.80;;;;;;4956302;28;20236;-79
2022/07/14 08:52:33;;;;;;;3.13;0.95;;;26.50;95.80;;;;;;4956632;28;20208;-76
2022/07/14 08:55:00;;;;;;;2.83;1.00;;;26.80;94.70;;;;;;4956603;28;20236;-68
2022/07/14 08:57:28;;;;;;;4.93;1.13;;;26.20;96.40;;;;;;4956584;28;20210;-69
2022/07/14 08:59:54;;;;;;;4.00;1.00;;;26.00;97.20;;;;;;4957093;28;20208;-69
2022/07/14 09:02:22;;;;;;;4.20;0.95;;;26.00;96.30;;;;;;4956503;28;20728;-70
2022/07/14 09:04:49;;;;;;;3.28;1.05;;;26.30;95.70;;;;;;4956635;28;20215;-74
2022/07/14 09:07:33;;;;;;;2.08;1.00;;;26.70;96.20;;;;;;4956475;28;20291;-68
2022/07/14 09:10:06;;;;;;;4.78;1.20;;;26.80;96.70;;;;;;4957310;28;20218;-70
2022/07/14 09:12:33;;;;;;;2.70;1.40;;;27.10;96.00;;;;;;4956693;28;20690;-73
2022/07/14 09:17:51;;;;;;;2.92;0.95;;;27.20;94.60;;;;;;4955629;28;20219;-74
2022/07/14 09:20:19;;;;;;;2.88;0.63;;;26.50;94.50;;;;;;4956241;28;20732;-68
2022/07/14 09:22:47;;;;;;;2.67;0.82;;;25.90;95.70;;;;;;4956280;28;20705;-69
2022/07/14 09:25:16;;;;;;;3.03;0.90;;;25.80;96.30;;;;;;4956141;28;20228;-76
2022/07/14 09:27:45;;;;;;;2.83;0.55;;;25.60;96.50;;;;;;4956080;28;20224;-78
2022/07/14 09:30:13;;;;;;;2.50;0.85;;;25.20;96.60;;;;;;4956551;29;20204;-75
2022/07/14 09:32:51;;;;;;;2.15;1.08;;;25.20;97.30;;;;;;4956139;28;20216;-71
2022/07/14 09:35:21;;;;;;;3.97;0.80;;;25.50;96.60;;;;;;4955902;28;20232;-67
2022/07/14 09:37:51;;;;;;;2.63;1.02;;;25.80;96.80;;;;;;4955715;28;20694;-67
2022/07/14 09:40:26;;;;;;;2.38;0.73;;;26.20;96.80;;;;;;4955916;29;20215;-67
2022/07/14 09:42:57;;;;;;;4.82;1.20;;;26.80;96.20;;;;;;4956059;28;20242;-73
2022/07/14 09:45:26;;;;;;;2.63;1.02;;;27.20;95.20;;;;;;4956024;28;20228;-69
2022/07/14 09:48:06;;;;;;;3.05;0.82;;;26.90;96.00;;;;;;4955839;28;20208;-69
2022/07/14 09:50:38;;;;;;;2.15;1.05;;;27.50;95.40;;;;;;4955631;28;20311;-77
2022/07/14 09:53:18;;;;;;;2.85;0.88;;;27.80;94.70;;;;;;4955956;28;20675;-69
2022/07/14 09:55:56;;;;;;;2.65;0.90;;;27.60;94.30;;;;;;4955502;28;20228;-76
2022/07/14 09:58:24;;;;;;;4.28;0.80;;;27.50;94.40;;;;;;4955795;28;20239;-66
2022/07/14 10:00:56;;;;;;;2.13;0.80;;;27.30;94.30;;;;;;4961566;28;20659;-66
2022/07/14 10:03:24;;;;;;;3.92;1.05;;;27.30;95.60;;;;;;4959474;28;20232;-66
2022/07/14 10:05:53;;;;;;;2.92;1.10;;;27.50;95.50;;;;;;4965490;28;20231;-71
2022/07/14 10:08:24;;;;;;;2.85;1.00;;;27.60;94.80;;;;;;4976972;28;20263;-71
2022/07/14 10:10:52;;;;;;;2.40;0.88;;;27.60;94.90;;;;;;4963065;28;20294;-78
2022/07/14 10:13:21;;;;;;;5.45;1.10;;;27.30;95.50;;;;;;4958418;28;20223;-71
2022/07/14 10:15:49;;;;;;;2.22;0.98;;;27.20;95.90;;;;;;4955454;28;20805;-67
2022/07/14 10:18:16;;;;;;;2.75;0.80;;;27.10;95.40;;;;;;4959624;28;20208;-66
2022/07/14 10:20:46;;;;;;;4.35;1.40;;;27.10;95.20;;;;;;4973272;28;20231;-67
2022/07/14 10:23:13;;;;;;;4.43;1.00;;;26.50;96.10;;;;;;4978084;28;20232;-73
2022/07/14 10:25:42;;;;;;;1.77;0.70;;;26.00;96.20;;;;;;4970435;28;20720;-77
2022/07/14 10:28:09;;;;;;;4.07;1.00;;;25.60;96.30;;;;;;4955264;28;20220;-78
2022/07/14 10:30:41;;;;;;;2.28;0.70;;;25.50;97.10;;;;;;4955158;28;20568;-75
2022/07/14 10:33:16;;;;;;;2.88;0.70;;;25.80;95.00;;;;;;4955425;28;20235;-78
2022/07/14 10:36:00;;;;;;;2.20;0.82;;;25.80;95.60;;;;;;4955001;28;20235;-78
2022/07/14 10:38:58;;;;;;;1.45;0.60;;;25.80;94.70;;;;;;4954882;28;20212;-78
2022/07/14 10:41:41;;;;;;;1.52;0.65;;;25.70;94.00;;;;;;4955135;28;20207;-73
2022/07/14 10:44:16;;;;;;;1.98;0.70;;;25.60;93.60;;;;;;4954788;28;20654;-78
2022/07/14 10:46:44;;;;;;;2.97;0.80;;;25.60;93.20;;;;;;4955106;28;20224;-77
2022/07/14 10:49:13;;;;;;;4.30;0.70;;;25.50;95.30;;;;;;4955005;28;20208;-74
2022/07/14 10:51:45;;;;;;;2.63;0.70;;;25.50;92.70;;;;;;4955135;28;20226;-70
2022/07/14 10:54:14;;;;;;;2.80;0.80;;;25.70;92.60;;;;;;4955070;28;20552;-77
2022/07/14 10:56:44;;;;;;;2.95;0.68;;;25.80;92.60;;;;;;4954961;28;20232;-75
2022/07/14 10:59:30;;;;;;;0.95;0.60;;;25.90;93.30;;;;;;4954670;28;20625;-77
2022/07/14 11:02:31;;;;;;;1.67;0.95;;;26.00;93.40;;;;;;4954864;29;20204;-76
2022/07/14 11:05:11;;;;;;;3.70;0.82;;;26.10;93.00;;;;;;4954374;29;20603;-70
2022/07/14 11:07:50;;;;;;;1.98;0.80;;;26.40;93.00;;;;;;4954546;28;20212;-77
2022/07/14 11:10:56;;;;;;;3.35;0.90;;;26.50;91.80;;;;;;4954576;28;20662;-75
2022/07/14 11:13:25;;;;;;;3.47;0.70;;;26.50;91.00;;;;;;4951444;28;20218;-78
2022/07/14 11:15:54;;;;;;;1.40;0.60;;;26.60;91.60;;;;;;4954473;28;20230;-78
2022/07/14 11:18:34;;;;;;;1.08;0.60;;;26.80;90.20;;;;;;4954819;28;20212;-79
2022/07/14 11:21:06;;;;;;;2.10;0.68;;;26.70;90.10;;;;;;4955011;28;20302;-79
2022/07/14 11:23:35;;;;;;;1.10;0.50;;;26.90;90.20;;;;;;4954421;28;20240;-78
2022/07/14 11:26:04;;;;;;;2.30;0.70;;;26.90;89.30;;;;;;4954403;28;20323;-78
2022/07/14 11:28:42;;;;;;;1.95;0.88;;;26.80;90.40;;;;;;4954580;28;20214;-79
2022/07/14 11:31:11;;;;;;;1.85;0.70;;;26.70;89.30;;;;;;4954529;28;20208;-77
2022/07/14 11:36:17;;;;;;;2.25;0.77;;;26.70;89.30;;;;;;4954481;28;20215;-78
2022/07/14 11:36:27;;;;;;;1.25;0.50;;;26.80;90.20;;;;;;4954085;29;20655;-79
2022/07/14 11:39:22;;;;;;;2.70;0.70;;;26.70;88.50;;;;;;4954328;28;20694;-78
2022/07/14 11:41:53;;;;;;;3.20;0.73;;;26.60;88.30;;;;;;4956649;28;20591;-78
2022/07/14 11:44:45;;;;;;;3.53;0.80;;;26.60;90.20;;;;;;4958008;28;20208;-75
2022/07/14 11:47:17;;;;;;;1.65;0.60;;;26.40;90.90;;;;;;4957655;28;20559;-77
2022/07/14 11:49:53;;;;;;;5.13;0.63;;;26.40;90.60;;;;;;4958034;28;20213;-79
2022/07/14 11:52:26;;;;;;;0.98;0.70;;;26.40;90.60;;;;;;4957778;28;20212;-79
2022/07/14 11:54:54;;;;;;;2.75;0.90;;;26.40;91.50;;;;;;4957619;28;20212;-79
2022/07/14 11:57:22;;;;;;;3.53;0.70;;;26.50;91.30;;;;;;4957729;28;20671;-77
2022/07/14 11:59:50;;;;;;;2.97;0.80;;;26.60;91.00;;;;;;4957627;28;20235;-78
2022/07/14 12:02:20;;;;;;;3.80;0.80;;;26.70;89.90;;;;;;4957599;28;20208;-78
2022/07/14 12:04:52;;;;;;;1.63;0.50;;;26.70;90.50;;;;;;4957625;28;20738;-79
2022/07/14 12:07:20;;;;;;;1.30;0.63;;;26.80;88.40;;;;;;4957720;28;20224;-74
2022/07/14 12:09:48;;;;;;;1.27;0.60;;;26.70;88.70;;;;;;4957476;28;20709;-78
2022/07/14 12:12:17;;;;;;;1.38;0.52;;;26.60;88.50;;;;;;4957477;29;20208;-78
2022/07/14 12:14:45;;;;;;;1.25;0.60;;;26.30;88.30;;;;;;4957419;28;20208;-79
2022/07/14 12:17:14;;;;;;;1.08;0.60;;;26.30;88.90;;;;;;4957419;28;20243;-79
2022/07/14 12:19:41;;;;;;;1.60;0.63;;;26.10;89.30;;;;;;4957638;28;20556;-79
2022/07/14 12:22:09;;;;;;;2.05;0.63;;;26.20;90.00;;;;;;4957426;28;20207;-79
2022/07/14 12:24:36;;;;;;;0.85;0.52;;;26.20;89.50;;;;;;4957203;28;20218;-75
2022/07/14 12:27:06;;;;;;;3.08;0.63;;;26.10;90.40;;;;;;4958059;28;20228;-79
2022/07/14 12:29:33;;;;;;;2.10;0.50;;;26.20;90.50;;;;;;4957568;28;20299;-78
2022/07/14 12:32:01;;;;;;;1.42;0.63;;;26.40;90.10;;;;;;4957033;28;20218;-78
2022/07/14 12:34:31;;;;;;;2.95;0.57;;;26.50;89.10;;;;;;4957228;28;20643;-80
2022/07/14 12:36:59;;;;;;;2.65;0.75;;;26.70;90.10;;;;;;4957225;28;20235;-77
2022/07/14 12:39:26;;;;;;;1.25;0.50;;;27.00;88.50;;;;;;4957088;28;20207;-75
2022/07/14 12:41:55;;;;;;;2.92;0.80;;;26.90;87.40;;;;;;4952847;28;20214;-78
2022/07/14 12:44:22;;;;;;;1.00;0.60;;;26.90;86.80;;;;;;4939967;28;20250;-81
2022/07/14 12:47:08;;;;;;;1.52;0.70;;;26.90;85.90;;;;;;4943849;29;20234;-75
2022/07/14 12:49:44;;;;;;;1.52;0.77;;;26.70;87.00;;;;;;4956651;28;20215;-73
2022/07/14 12:52:11;;;;;;;0.95;0.60;;;26.60;88.30;;;;;;4956420;28;20282;-75
2022/07/14 12:54:41;;;;;;;5.85;0.77;;;26.60;88.40;;;;;;4956657;28;20208;-75
2022/07/14 12:57:17;;;;;;;0.90;0.50;;;26.80;86.50;;;;;;4956628;28;20212;-75
2022/07/14 12:59:46;;;;;;;3.03;0.70;;;26.40;87.70;;;;;;4956517;28;20697;-68
2022/07/14 13:02:21;;;;;;;2.15;0.70;;;26.30;87.10;;;;;;4956575;28;20212;-74
2022/07/14 13:04:51;;;;;;;2.05;0.73;;;26.30;88.80;;;;;;4957136;28;20215;-76
2022/07/14 13:07:20;;;;;;;4.50;0.98;;;26.20;89.20;;;;;;4957071;28;20208;-79
2022/07/14 13:10:07;;;;;;;1.77;0.90;;;26.00;88.80;;;;;;4956745;28;20223;-77
2022/07/14 13:12:35;;;;;;;1.98;0.70;;;26.00;89.80;;;;;;4956893;28;20219;-72
2022/07/14 13:15:04;;;;;;;1.75;1.00;;;26.00;90.10;;;;;;4956719;28;20699;-75
2022/07/14 13:17:54;;;;;;;2.97;0.85;;;26.10;88.90;;;;;;4956545;28;20574;-77
2022/07/14 13:20:51;;;;;;;1.38;0.80;;;26.20;90.50;;;;;;4956300;28;20208;-75
2022/07/14 13:23:28;;;;;;;4.85;0.90;;;26.40;90.50;;;;;;4956399;28;20283;-74
2022/07/14 13:25:56;;;;;;;1.25;0.73;;;26.80;89.00;;;;;;4956218;28;20238;-75
2022/07/14 13:28:31;;;;;;;4.10;0.80;;;26.90;89.80;;;;;;4956471;28;20295;-77
2022/07/14 13:30:57;;;;;;;2.05;0.80;;;26.90;88.40;;;;;;4956261;28;20218;-77
2022/07/14 13:33:25;;;;;;;4.00;0.70;;;26.90;86.30;;;;;;4956213;28;20311;-73
2022/07/14 13:35:55;;;;;;;1.20;0.65;;;26.90;87.10;;;;;;4954969;29;20227;-76
2022/07/14 13:38:22;;;;;;;1.75;0.63;;;26.90;88.20;;;;;;4955728;28;20215;-69
2022/07/14 13:40:49;;;;;;;1.58;0.80;;;26.90;86.50;;;;;;4955318;28;20236;-73
2022/07/14 13:43:16;;;;;;;2.10;0.68;;;26.80;86.90;;;;;;4955855;28;20231;-72
2022/07/14 13:45:43;;;;;;;1.70;0.90;;;26.60;86.90;;;;;;4955691;28;20770;-71
2022/07/14 13:48:10;;;;;;;0.95;0.57;;;26.60;86.70;;;;;;4955974;28;20302;-75
2022/07/14 13:53:22;;;;;;;2.05;0.65;;;26.70;88.00;;;;;;4955990;29;20332;-78
2022/07/14 13:55:50;;;;;;;2.05;0.90;;;26.80;88.30;;;;;;4955687;28;20270;-76
2022/07/14 13:58:17;;;;;;;1.85;0.60;;;26.80;86.90;;;;;;4956190;28;20582;-76
2022/07/14 14:00:44;;;;;;;2.13;0.88;;;26.90;87.60;;;;;;4956016;28;20216;-75
2022/07/14 14:03:26;;;;;;;2.13;0.90;;;26.90;86.40;;;;;;4955726;28;20236;-74
2022/07/14 14:05:55;;;;;;;3.22;0.98;;;26.60;87.40;;;;;;4955151;28;20263;-74
2022/07/14 14:08:23;;;;;;;2.28;0.73;;;26.40;86.60;;;;;;4955626;28;20222;-74
2022/07/14 14:10:51;;;;;;;2.17;0.65;;;26.20;87.00;;;;;;4955508;28;20212;-74
2022/07/14 14:13:18;;;;;;;0.95;0.68;;;25.80;86.70;;;;;;4956828;28;20586;-67
2022/07/14 14:15:46;;;;;;;3.92;0.70;;;25.70;88.40;;;;;;4968034;28;20234;-70
2022/07/14 14:18:13;;;;;;;1.45;0.63;;;25.80;89.50;;;;;;4968531;28;20235;-69
2022/07/14 14:20:40;;;;;;;2.67;0.88;;;25.80;87.80;;;;;;4963150;28;20294;-70
2022/07/14 14:23:07;;;;;;;2.55;0.80;;;25.60;86.50;;;;;;4958764;28;20238;-69
2022/07/14 14:25:37;;;;;;;2.17;0.80;;;25.60;86.60;;;;;;4957524;28;20548;-75
2022/07/14 14:28:05;;;;;;;0.80;0.68;;;25.40;89.30;;;;;;4956621;28;20218;-78
2022/07/14 14:30:32;;;;;;;2.13;0.60;;;25.60;90.70;;;;;;4956148;28;20220;-72
2022/07/14 14:32:59;;;;;;;7.38;0.90;;;25.70;87.80;;;;;;4963538;28;20218;-79
2022/07/14 14:35:26;;;;;;;2.03;1.02;;;25.80;87.40;;;;;;4971286;28;20224;-66
2022/07/14 14:37:53;;;;;;;2.70;0.90;;;25.80;85.90;;;;;;4968826;28;20214;-66
2022/07/14 14:40:20;;;;;;;2.42;1.02;;;25.90;87.60;;;;;;4959378;28;20212;-67
2022/07/14 14:42:49;;;;;;;3.40;0.98;;;25.90;87.90;;;;;;4955278;28;20222;-78
2022/07/14 14:45:17;;;;;;;4.07;1.00;;;25.50;87.90;;;;;;4955593;28;20232;-81
2022/07/14 14:47:45;;;;;;;2.22;0.80;;;25.20;89.10;;;;;;4955707;28;20214;-73
2022/07/14 14:50:13;;;;;;;1.65;0.90;;;25.20;90.40;;;;;;4955731;28;20295;-79
2022/07/14 14:52:40;;;;;;;1.42;0.80;;;25.30;90.20;;;;;;4955902;28;20204;-78
2022/07/14 14:55:09;;;;;;;3.15;1.17;;;25.60;88.30;;;;;;4955279;28;20599;-78
2022/07/14 14:57:36;;;;;;;3.33;0.90;;;25.70;87.20;;;;;;4955305;28;20212;-78
2022/07/14 15:00:07;;;;;;;1.67;0.70;;;25.80;87.90;;;;;;4955867;28;20299;-76
2022/07/14 15:02:35;;;;;;;2.10;0.60;;;25.80;85.80;;;;;;4954857;28;20541;-77
2022/07/14 15:05:01;;;;;;;4.03;0.80;;;25.80;85.10;;;;;;4954769;28;20703;-75
2022/07/14 15:07:28;;;;;;;1.77;0.70;;;25.80;86.50;;;;;;4955300;28;20302;-79
2022/07/14 15:09:55;;;;;;;4.80;0.85;;;25.70;87.80;;;;;;4955973;28;20302;-79
2022/07/14 15:12:23;;;;;;;2.17;1.23;;;25.70;87.20;;;;;;4955633;28;20218;-77
2022/07/14 15:14:50;;;;;;;1.10;0.52;;;25.70;87.30;;;;;;4955414;28;20218;-79
2022/07/14 15:17:19;;;;;;;2.92;0.80;;;25.80;88.60;;;;;;4959474;28;20204;-78
2022/07/14 15:19:47;;;;;;;3.30;0.80;;;25.80;87.90;;;;;;4958482;28;20302;-67
